createdAt,value
2018-09-26T00:00:46.018Z,1.80
2018-09-26T00:03:21.104Z,1.40
2018-09-26T00:05:49.766Z,1.63
2018-09-26T00:08:18.459Z,1.50
2018-09-26T00:10:47.475Z,1.40
2018-09-26T00:13:16.558Z,1.40
2018-09-26T00:15:45.218Z,1.30
2018-09-26T00:18:13.883Z,1.40
2018-09-26T00:20:42.588Z,1.25
2018-09-26T00:23:11.243Z,1.37
2018-09-26T00:25:39.934Z,1.37
2018-09-26T00:28:08.568Z,1.17
2018-09-26T00:30:37.227Z,1.53
2018-09-26T00:33:05.911Z,1.30
2018-09-26T00:35:34.588Z,1.17
2018-09-26T00:38:03.258Z,1.30
2018-09-26T00:40:32.050Z,1.77
2018-09-26T00:43:00.694Z,1.20
2018-09-26T00:45:29.463Z,1.40
2018-09-26T00:47:58.126Z,1.20
2018-09-26T00:50:26.770Z,1.00
2018-09-26T00:52:55.431Z,1.15
2018-09-26T00:55:24.090Z,1.27
2018-09-26T00:57:52.754Z,1.22
2018-09-26T01:00:21.398Z,1.30
2018-09-26T01:02:50.059Z,1.20
2018-09-26T01:05:18.710Z,1.25
2018-09-26T01:07:47.387Z,1.40
2018-09-26T01:10:16.030Z,1.45
2018-09-26T01:12:44.703Z,1.47
2018-09-26T01:15:13.366Z,1.20
2018-09-26T01:17:42.048Z,1.40
2018-09-26T01:20:10.735Z,1.10
2018-09-26T01:22:39.412Z,1.10
2018-09-26T01:25:08.072Z,1.20
2018-09-26T01:27:36.744Z,1.02
2018-09-26T01:30:06.418Z,1.20
2018-09-26T01:32:35.091Z,1.17
2018-09-26T01:35:03.754Z,1.17
2018-09-26T01:37:32.444Z,1.40
2018-09-26T01:40:01.106Z,1.20
2018-09-26T01:42:29.764Z,1.20
2018-09-26T01:44:58.430Z,1.15
2018-09-26T01:47:27.100Z,1.20
2018-09-26T01:49:55.746Z,1.05
2018-09-26T01:52:24.416Z,1.07
2018-09-26T01:54:53.062Z,1.35
2018-09-26T01:57:21.720Z,0.93
2018-09-26T01:59:50.375Z,0.98
2018-09-26T02:02:19.043Z,1.15
2018-09-26T02:04:47.704Z,1.33
2018-09-26T02:07:16.530Z,1.10
2018-09-26T02:09:45.158Z,1.10
2018-09-26T02:12:13.826Z,1.27
2018-09-26T02:14:42.503Z,1.20
2018-09-26T02:17:11.159Z,1.25
2018-09-26T02:19:39.814Z,1.10
2018-09-26T02:22:08.466Z,0.90
2018-09-26T02:24:37.143Z,1.20
2018-09-26T02:27:05.901Z,1.60
2018-09-26T02:29:34.658Z,1.40
2018-09-26T02:32:03.316Z,1.60
2018-09-26T02:34:31.999Z,1.15
2018-09-26T02:37:00.818Z,1.05
2018-09-26T02:39:29.498Z,1.30
2018-09-26T02:41:58.162Z,1.20
2018-09-26T02:44:26.827Z,1.07
2018-09-26T02:46:55.487Z,1.30
2018-09-26T02:49:24.143Z,0.97
2018-09-26T02:51:52.794Z,1.37
2018-09-26T02:54:21.450Z,1.10
2018-09-26T02:56:50.123Z,1.30
2018-09-26T02:59:18.776Z,1.22
2018-09-26T03:01:47.431Z,1.13
2018-09-26T03:04:16.095Z,1.10
2018-09-26T03:06:44.755Z,1.20
2018-09-26T03:09:13.422Z,1.25
2018-09-26T03:11:42.095Z,1.02
2018-09-26T03:14:10.755Z,1.17
2018-09-26T03:16:39.424Z,1.20
2018-09-26T03:19:08.084Z,1.10
2018-09-26T03:21:36.743Z,1.30
2018-09-26T03:24:05.397Z,1.30
2018-09-26T03:26:34.068Z,1.00
2018-09-26T03:29:03.050Z,1.17
2018-09-26T03:31:31.888Z,1.17
2018-09-26T03:34:00.679Z,1.00
2018-09-26T03:36:33.326Z,1.72
2018-09-26T03:39:02.007Z,1.42
2018-09-26T03:41:30.698Z,1.10
2018-09-26T03:43:59.447Z,1.00
2018-09-26T03:46:28.090Z,1.27
2018-09-26T03:48:56.763Z,1.67
2018-09-26T03:51:25.444Z,1.20
2018-09-26T03:53:54.111Z,1.00
2018-09-26T03:56:22.807Z,1.17
2018-09-26T03:58:51.500Z,0.90
2018-09-26T04:01:20.162Z,1.20
2018-09-26T04:03:48.846Z,1.10
2018-09-26T04:06:17.520Z,1.20
2018-09-26T04:08:46.193Z,1.30
2018-09-26T04:11:14.871Z,1.17
2018-09-26T04:13:44.042Z,1.05
2018-09-26T04:16:12.702Z,1.10
2018-09-26T04:18:41.370Z,1.07
2018-09-26T04:21:10.131Z,1.00
2018-09-26T04:23:38.903Z,0.95
2018-09-26T04:26:07.641Z,0.75
2018-09-26T04:28:36.267Z,1.20
2018-09-26T04:31:04.928Z,1.00
2018-09-26T04:33:33.641Z,1.35
2018-09-26T04:36:02.277Z,1.22
2018-09-26T04:38:30.956Z,1.10
2018-09-26T04:40:59.623Z,1.17
2018-09-26T04:43:28.337Z,1.40
2018-09-26T04:45:56.975Z,1.35
2018-09-26T04:48:25.662Z,1.32
2018-09-26T04:50:54.400Z,1.55
2018-09-26T04:53:23.011Z,1.00
2018-09-26T04:55:51.675Z,1.17
2018-09-26T04:58:20.405Z,1.02
2018-09-26T05:00:49.023Z,1.52
2018-09-26T05:03:17.702Z,1.40
2018-09-26T05:05:46.373Z,1.45
2018-09-26T05:08:15.055Z,1.33
2018-09-26T05:10:43.713Z,1.30
2018-09-26T05:13:12.391Z,1.50
2018-09-26T05:15:41.067Z,1.32
2018-09-26T05:18:09.752Z,1.60
2018-09-26T05:20:38.425Z,1.20
2018-09-26T05:23:07.139Z,1.37
2018-09-26T05:25:35.780Z,1.65
2018-09-26T05:28:04.455Z,1.20
2018-09-26T05:30:33.423Z,1.50
2018-09-26T05:33:02.122Z,1.32
2018-09-26T05:35:30.891Z,1.55
2018-09-26T05:37:59.535Z,1.47
2018-09-26T05:40:28.194Z,1.40
2018-09-26T05:42:56.868Z,1.00
2018-09-26T05:45:25.544Z,1.27
2018-09-26T05:47:54.247Z,1.00
2018-09-26T05:50:22.911Z,1.10
2018-09-26T05:52:51.559Z,1.30
2018-09-26T05:55:20.229Z,1.10
2018-09-26T05:57:48.886Z,1.47
2018-09-26T06:00:17.572Z,1.10
2018-09-26T06:02:46.227Z,1.10
2018-09-26T06:05:14.892Z,1.00
2018-09-26T06:07:43.550Z,1.10
2018-09-26T06:10:12.252Z,0.93
2018-09-26T06:12:40.917Z,1.00
2018-09-26T06:15:09.580Z,1.10
2018-09-26T06:17:38.250Z,0.83
2018-09-26T06:20:07.035Z,0.90
2018-09-26T06:22:35.734Z,0.90
2018-09-26T06:25:04.410Z,0.90
2018-09-26T06:27:33.075Z,1.03
2018-09-26T06:30:02.033Z,1.10
2018-09-26T06:32:30.700Z,0.90
2018-09-26T06:34:59.422Z,1.30
2018-09-26T06:37:28.104Z,0.90
2018-09-26T06:39:56.726Z,1.00
2018-09-26T06:42:25.466Z,1.23
2018-09-26T06:44:54.167Z,1.00
2018-09-26T06:47:22.861Z,1.10
2018-09-26T06:49:51.494Z,0.90
2018-09-26T06:52:20.154Z,0.87
2018-09-26T06:54:48.822Z,1.20
2018-09-26T06:57:17.590Z,1.10
2018-09-26T06:59:46.459Z,1.00
2018-09-26T07:02:15.132Z,0.90
2018-09-26T07:04:43.798Z,1.00
2018-09-26T07:07:12.470Z,1.00
2018-09-26T07:09:41.219Z,0.90
2018-09-26T07:12:09.925Z,1.00
2018-09-26T07:14:39.078Z,0.90
2018-09-26T07:17:07.707Z,1.00
2018-09-26T07:19:36.431Z,0.90
2018-09-26T07:22:05.091Z,1.10
2018-09-26T07:24:34.031Z,1.10
2018-09-26T07:27:02.694Z,1.00
2018-09-26T07:29:31.379Z,0.80
2018-09-26T07:32:00.053Z,0.90
2018-09-26T07:34:34.345Z,0.93
2018-09-26T07:37:03.007Z,0.80
2018-09-26T07:39:31.679Z,0.73
2018-09-26T07:42:00.354Z,1.10
2018-09-26T07:44:29.011Z,1.20
2018-09-26T07:46:57.676Z,1.00
2018-09-26T07:49:26.346Z,1.10
2018-09-26T07:51:55.106Z,1.33
2018-09-26T07:54:23.767Z,1.30
2018-09-26T07:56:52.439Z,0.97
2018-09-26T07:59:21.102Z,0.87
2018-09-26T08:01:49.760Z,0.80
2018-09-26T08:04:18.422Z,1.03
2018-09-26T08:06:47.086Z,1.00
2018-09-26T08:09:15.750Z,1.17
2018-09-26T08:11:44.425Z,0.97
2018-09-26T08:14:13.079Z,0.90
2018-09-26T08:16:41.738Z,1.00
2018-09-26T08:19:10.542Z,1.13
2018-09-26T08:21:39.202Z,0.80
2018-09-26T08:24:08.048Z,0.90
2018-09-26T08:26:36.634Z,0.97
2018-09-26T08:29:05.292Z,1.10
2018-09-26T08:31:33.953Z,1.37
2018-09-26T08:34:02.621Z,1.00
2018-09-26T08:36:31.283Z,1.50
2018-09-26T08:38:59.942Z,0.83
2018-09-26T08:41:28.717Z,1.10
2018-09-26T08:43:57.406Z,1.23
2018-09-26T08:46:26.074Z,0.90
2018-09-26T08:48:54.738Z,0.93
2018-09-26T08:51:23.416Z,0.90
2018-09-26T08:53:52.268Z,1.00
2018-09-26T08:56:20.785Z,0.80
2018-09-26T08:58:49.503Z,1.30
2018-09-26T09:01:23.563Z,1.20
2018-09-26T09:03:52.231Z,0.60
2018-09-26T09:06:20.962Z,0.73
2018-09-26T09:08:49.655Z,0.93
2018-09-26T09:11:18.314Z,0.90
2018-09-26T09:13:46.988Z,0.90
2018-09-26T09:16:15.663Z,0.90
2018-09-26T09:18:44.331Z,0.90
2018-09-26T09:21:13.096Z,1.03
2018-09-26T09:23:41.771Z,0.87
2018-09-26T09:26:10.474Z,1.00
2018-09-26T09:28:39.127Z,0.73
2018-09-26T09:31:08.071Z,1.10
2018-09-26T09:33:36.733Z,0.80
2018-09-26T09:36:05.730Z,1.40
2018-09-26T09:38:34.388Z,1.20
2018-09-26T09:41:03.070Z,0.90
2018-09-26T09:43:31.735Z,1.03
2018-09-26T09:46:00.410Z,0.97
2018-09-26T09:48:29.075Z,0.93
2018-09-26T09:50:57.746Z,0.90
2018-09-26T09:53:26.410Z,0.90
2018-09-26T09:55:55.083Z,1.10
2018-09-26T09:58:23.747Z,0.77
2018-09-26T10:00:57.893Z,0.80
2018-09-26T10:03:26.554Z,0.93
2018-09-26T10:05:55.235Z,1.00
2018-09-26T10:08:23.912Z,0.77
2018-09-26T10:10:52.567Z,1.30
2018-09-26T10:13:21.218Z,0.90
2018-09-26T10:15:49.883Z,1.10
2018-09-26T10:18:18.576Z,1.00
2018-09-26T10:20:47.264Z,0.80
2018-09-26T10:23:15.959Z,0.67
2018-09-26T10:25:44.640Z,1.00
2018-09-26T10:28:13.309Z,0.97
2018-09-26T10:30:41.983Z,0.90
2018-09-26T10:33:10.643Z,0.73
2018-09-26T10:35:39.323Z,1.20
2018-09-26T10:38:08.047Z,1.00
2018-09-26T10:40:36.716Z,0.93
2018-09-26T10:43:05.374Z,0.80
2018-09-26T10:45:34.032Z,0.80
2018-09-26T10:48:02.794Z,1.00
2018-09-26T10:50:31.501Z,1.07
2018-09-26T10:53:00.142Z,1.20
2018-09-26T10:55:28.815Z,0.70
2018-09-26T10:57:57.481Z,1.00
2018-09-26T11:00:26.172Z,1.37
2018-09-26T11:02:54.844Z,1.00
2018-09-26T11:05:23.538Z,1.00
2018-09-26T11:07:52.218Z,1.00
2018-09-26T11:10:20.891Z,1.00
2018-09-26T11:12:49.577Z,1.00
2018-09-26T11:15:18.265Z,1.10
2018-09-26T11:17:46.917Z,1.30
2018-09-26T11:20:15.643Z,1.00
2018-09-26T11:22:44.293Z,0.90
2018-09-26T11:25:12.955Z,0.90
2018-09-26T11:27:41.631Z,4.33
2018-09-26T11:30:11.118Z,2.00
2018-09-26T11:32:39.892Z,2.50
2018-09-26T11:35:08.578Z,1.83
2018-09-26T11:37:37.300Z,2.00
2018-09-26T11:40:06.164Z,1.43
2018-09-26T11:42:34.802Z,1.30
2018-09-26T11:45:03.534Z,1.23
2018-09-26T11:47:32.206Z,1.20
2018-09-26T11:50:00.891Z,1.03
2018-09-26T11:52:29.583Z,1.17
2018-09-26T11:55:04.994Z,1.20
2018-09-26T11:57:33.655Z,1.10
2018-09-26T12:00:02.328Z,1.10
2018-09-26T12:02:31.198Z,1.07
2018-09-26T12:04:59.825Z,1.00
2018-09-26T12:07:28.529Z,2.10
2018-09-26T12:09:57.272Z,2.73
2018-09-26T12:12:25.964Z,1.30
2018-09-26T12:14:54.665Z,1.13
2018-09-26T12:17:23.323Z,1.00
2018-09-26T12:19:52.047Z,1.20
2018-09-26T12:22:20.904Z,1.10
2018-09-26T12:24:49.407Z,1.03
2018-09-26T12:27:18.088Z,1.10
2018-09-26T12:29:46.743Z,1.00
2018-09-26T12:32:15.540Z,0.83
2018-09-26T12:34:44.287Z,0.80
2018-09-26T12:37:12.953Z,1.20
2018-09-26T12:39:41.731Z,1.00
2018-09-26T12:42:10.418Z,0.90
2018-09-26T12:44:39.102Z,0.90
2018-09-26T12:47:07.890Z,0.60
2018-09-26T12:49:36.551Z,0.93
2018-09-26T12:52:05.283Z,0.93
2018-09-26T12:54:33.910Z,0.90
2018-09-26T12:57:02.568Z,0.90
2018-09-26T12:59:31.246Z,0.80
2018-09-26T13:01:59.941Z,1.00
2018-09-26T13:04:28.619Z,1.00
2018-09-26T13:06:57.312Z,0.93
2018-09-26T13:09:26.056Z,0.80
2018-09-26T13:11:54.695Z,0.70
2018-09-26T13:14:23.484Z,1.07
2018-09-26T13:16:52.068Z,1.03
2018-09-26T13:19:20.754Z,1.40
2018-09-26T13:21:49.407Z,1.00
2018-09-26T13:24:18.113Z,0.80
2018-09-26T13:26:46.759Z,1.03
2018-09-26T13:29:15.427Z,1.00
2018-09-26T13:31:44.222Z,0.90
2018-09-26T13:34:12.926Z,1.27
2018-09-26T13:36:41.767Z,0.80
2018-09-26T13:39:10.525Z,1.00
2018-09-26T13:41:39.131Z,1.20
2018-09-26T13:44:07.841Z,1.00
2018-09-26T13:46:36.865Z,1.13
2018-09-26T13:49:05.531Z,1.00
2018-09-26T13:51:34.198Z,1.13
2018-09-26T13:54:02.886Z,0.97
2018-09-26T13:56:31.580Z,1.03
2018-09-26T13:59:00.251Z,1.30
2018-09-26T14:01:29.003Z,1.33
2018-09-26T14:03:57.650Z,1.50
2018-09-26T14:06:26.310Z,1.00
2018-09-26T14:08:54.974Z,1.20
2018-09-26T14:11:23.668Z,1.23
2018-09-26T14:13:52.334Z,1.27
2018-09-26T14:16:21.047Z,1.13
2018-09-26T14:18:49.698Z,0.80
2018-09-26T14:21:32.460Z,1.10
2018-09-26T14:24:01.335Z,1.33
2018-09-26T14:26:30.243Z,1.17
2018-09-26T14:28:59.100Z,1.17
2018-09-26T14:31:28.024Z,1.33
2018-09-26T14:33:57.466Z,1.17
2018-09-26T14:36:26.630Z,1.47
2018-09-26T14:38:56.034Z,1.10
2018-09-26T14:41:24.845Z,1.10
2018-09-26T14:43:53.698Z,1.30
2018-09-26T14:46:22.567Z,0.90
2018-09-26T14:48:51.819Z,1.03
2018-09-26T14:51:21.301Z,0.90
2018-09-26T14:53:50.180Z,1.00
2018-09-26T14:56:19.112Z,0.83
2018-09-26T14:58:47.958Z,0.83
2018-09-26T15:01:16.864Z,1.00
2018-09-26T15:03:45.743Z,1.00
2018-09-26T15:06:15.614Z,0.93
2018-09-26T15:08:44.548Z,0.90
2018-09-26T15:11:13.351Z,1.07
2018-09-26T15:13:42.316Z,1.23
2018-09-26T15:16:11.237Z,0.70
2018-09-26T15:18:40.091Z,1.20
2018-09-26T15:21:08.991Z,1.13
2018-09-26T15:23:37.883Z,0.90
2018-09-26T15:26:06.874Z,1.10
2018-09-26T15:28:35.829Z,0.83
2018-09-26T15:31:04.633Z,0.90
2018-09-26T15:33:33.568Z,0.80
2018-09-26T15:36:02.443Z,1.07
2018-09-26T15:38:31.321Z,1.20
2018-09-26T15:41:00.195Z,0.70
2018-09-26T15:43:29.060Z,1.07
2018-09-26T15:45:57.963Z,0.90
2018-09-26T15:48:26.924Z,0.90
2018-09-26T15:50:55.746Z,1.17
2018-09-26T15:53:24.628Z,1.00
2018-09-26T15:55:53.576Z,1.20
2018-09-26T15:58:22.441Z,0.83
2018-09-26T16:00:51.324Z,1.20
2018-09-26T16:03:20.090Z,1.40
2018-09-26T16:05:49.517Z,1.10
2018-09-26T16:08:18.280Z,1.03
2018-09-26T16:10:46.852Z,1.00
2018-09-26T16:13:15.514Z,1.30
2018-09-26T16:15:44.223Z,1.17
2018-09-26T16:18:12.889Z,1.40
2018-09-26T16:20:41.535Z,0.97
2018-09-26T16:23:10.227Z,1.10
2018-09-26T16:25:38.908Z,1.10
2018-09-26T16:28:07.616Z,1.23
2018-09-26T16:30:36.207Z,1.20
2018-09-26T16:33:04.971Z,1.20
2018-09-26T16:35:33.723Z,1.20
2018-09-26T16:38:02.392Z,0.93
2018-09-26T16:40:31.050Z,1.50
2018-09-26T16:42:59.719Z,1.50
2018-09-26T16:45:28.380Z,1.23
2018-09-26T16:47:57.029Z,1.27
2018-09-26T16:50:25.742Z,1.50
2018-09-26T16:52:54.345Z,1.37
2018-09-26T16:55:23.006Z,1.90
2018-09-26T16:57:51.683Z,1.40
2018-09-26T17:00:20.356Z,1.23
2018-09-26T17:02:48.995Z,1.40
2018-09-26T17:05:17.654Z,1.00
2018-09-26T17:07:46.307Z,0.93
2018-09-26T17:10:14.977Z,1.57
2018-09-26T17:12:43.895Z,1.10
2018-09-26T17:15:12.616Z,1.23
2018-09-26T17:17:41.259Z,1.90
2018-09-26T17:20:09.989Z,2.17
2018-09-26T17:22:38.844Z,2.37
2018-09-26T17:25:07.511Z,3.53
2018-09-26T17:27:36.222Z,3.70
2018-09-26T17:30:05.017Z,4.37
2018-09-26T17:32:33.707Z,2.63
2018-09-26T17:35:02.383Z,3.87
2018-09-26T17:37:31.110Z,6.40
2018-09-26T17:39:59.747Z,4.37
2018-09-26T17:42:28.439Z,2.10
2018-09-26T17:44:57.084Z,1.53
2018-09-26T17:47:25.734Z,1.30
2018-09-26T17:49:54.412Z,1.67
2018-09-26T17:52:23.202Z,1.63
2018-09-26T17:54:51.790Z,1.23
2018-09-26T17:57:20.477Z,1.30
2018-09-26T17:59:49.131Z,1.50
2018-09-26T18:02:17.784Z,1.20
2018-09-26T18:04:46.444Z,1.33
2018-09-26T18:07:15.113Z,1.30
2018-09-26T18:09:43.786Z,1.37
2018-09-26T18:12:12.440Z,1.40
2018-09-26T18:14:41.161Z,1.20
2018-09-26T18:17:09.853Z,1.47
2018-09-26T18:19:38.612Z,1.70
2018-09-26T18:22:07.299Z,1.47
2018-09-26T18:24:35.990Z,1.20
2018-09-26T18:27:04.675Z,1.40
2018-09-26T18:29:33.390Z,1.20
2018-09-26T18:32:02.170Z,1.40
2018-09-26T18:34:30.855Z,1.77
2018-09-26T18:36:59.680Z,1.30
2018-09-26T18:39:28.557Z,1.73
2018-09-26T18:41:57.132Z,1.30
2018-09-26T18:44:26.084Z,1.10
2018-09-26T18:46:54.759Z,1.10
2018-09-26T18:49:23.459Z,1.20
2018-09-26T18:51:52.160Z,1.30
2018-09-26T18:54:20.839Z,1.13
2018-09-26T18:56:49.514Z,1.27
2018-09-26T18:59:18.231Z,1.20
2018-09-26T19:01:46.889Z,1.27
2018-09-26T19:04:15.573Z,1.10
2018-09-26T19:06:44.251Z,1.30
2018-09-26T19:09:13.037Z,1.27
2018-09-26T19:11:41.707Z,1.10
2018-09-26T19:14:10.388Z,1.60
2018-09-26T19:16:39.071Z,1.13
2018-09-26T19:19:07.742Z,1.30
2018-09-26T19:21:36.501Z,1.10
2018-09-26T19:24:05.094Z,1.10
2018-09-26T19:26:33.865Z,1.20
2018-09-26T19:29:02.543Z,1.10
2018-09-26T19:31:31.258Z,1.47
2018-09-26T19:33:59.929Z,1.17
2018-09-26T19:36:28.684Z,1.10
2018-09-26T19:38:57.321Z,1.13
2018-09-26T19:41:26.083Z,1.30
2018-09-26T19:43:54.789Z,1.30
2018-09-26T19:46:23.447Z,1.13
2018-09-26T19:48:52.123Z,1.50
2018-09-26T19:51:20.811Z,1.10
2018-09-26T19:53:49.503Z,1.23
2018-09-26T19:56:18.417Z,1.10
2018-09-26T19:58:46.988Z,1.80
2018-09-26T20:01:15.685Z,1.70
2018-09-26T20:03:44.361Z,2.10
2018-09-26T20:06:13.066Z,1.57
2018-09-26T20:08:41.738Z,1.30
2018-09-26T20:11:10.435Z,1.10
2018-09-26T20:13:39.183Z,1.10
2018-09-26T20:16:07.978Z,0.90
2018-09-26T20:18:36.669Z,1.03
2018-09-26T20:21:05.392Z,0.93
2018-09-26T20:23:34.173Z,1.27
2018-09-26T20:26:02.824Z,1.00
2018-09-26T20:28:31.517Z,1.10
2018-09-26T20:31:00.271Z,1.03
2018-09-26T20:33:28.872Z,1.23
2018-09-26T20:35:57.551Z,0.90
2018-09-26T20:38:26.211Z,1.00
2018-09-26T20:40:55.021Z,1.00
2018-09-26T20:43:23.704Z,1.00
2018-09-26T20:45:52.383Z,0.97
2018-09-26T20:48:21.155Z,1.30
2018-09-26T20:50:49.844Z,1.10
2018-09-26T20:53:18.522Z,1.20
2018-09-26T20:55:47.184Z,1.20
2018-09-26T20:58:15.936Z,0.93
2018-09-26T21:00:44.558Z,1.20
2018-09-26T21:03:13.183Z,1.30
2018-09-26T21:05:41.843Z,0.90
2018-09-26T21:08:10.488Z,1.10
2018-09-26T21:10:39.138Z,0.80
2018-09-26T21:13:07.786Z,0.70
2018-09-26T21:15:36.435Z,0.97
2018-09-26T21:18:05.089Z,0.90
2018-09-26T21:20:33.760Z,1.10
2018-09-26T21:23:02.423Z,1.17
2018-09-26T21:25:31.062Z,1.30
2018-09-26T21:27:59.715Z,0.87
2018-09-26T21:30:28.376Z,1.13
2018-09-26T21:32:57.171Z,1.67
2018-09-26T21:35:25.819Z,1.10
2018-09-26T21:37:54.474Z,0.80
2018-09-26T21:40:23.151Z,1.30
2018-09-26T21:42:51.798Z,1.10
2018-09-26T21:45:20.460Z,0.90
2018-09-26T21:47:49.146Z,1.00
2018-09-26T21:50:17.804Z,1.00
2018-09-26T21:52:46.588Z,1.00
2018-09-26T21:55:15.368Z,0.90
2018-09-26T21:57:44.014Z,1.03
2018-09-26T22:00:12.774Z,1.13
2018-09-26T22:02:41.430Z,1.13
2018-09-26T22:05:10.082Z,1.20
2018-09-26T22:07:38.750Z,1.20
2018-09-26T22:10:07.628Z,1.10
2018-09-26T22:12:36.454Z,1.10
2018-09-26T22:15:09.382Z,1.00
2018-09-26T22:17:38.108Z,1.40
2018-09-26T22:20:06.779Z,1.10
2018-09-26T22:22:35.436Z,0.93
2018-09-26T22:25:04.091Z,0.90
2018-09-26T22:27:32.786Z,0.93
2018-09-26T22:30:01.439Z,1.30
2018-09-26T22:32:30.091Z,1.00
2018-09-26T22:34:58.858Z,1.20
2018-09-26T22:37:27.624Z,1.00
2018-09-26T22:39:56.291Z,0.93
2018-09-26T22:42:24.954Z,1.40
2018-09-26T22:44:53.628Z,1.07
2018-09-26T22:47:22.292Z,1.13
2018-09-26T22:49:50.935Z,1.20
2018-09-26T22:52:19.603Z,1.23
2018-09-26T22:54:48.251Z,1.20
2018-09-26T22:57:16.914Z,1.30
2018-09-26T22:59:45.716Z,1.13
2018-09-26T23:02:14.394Z,1.30
2018-09-26T23:04:43.075Z,1.00
2018-09-26T23:07:12.047Z,1.30
2018-09-26T23:09:40.695Z,1.30
2018-09-26T23:12:09.366Z,1.37
2018-09-26T23:14:38.030Z,1.10
2018-09-26T23:17:06.694Z,1.23
2018-09-26T23:19:35.346Z,1.20
2018-09-26T23:22:04.019Z,1.00
2018-09-26T23:24:32.707Z,1.00
2018-09-26T23:27:01.381Z,1.20
2018-09-26T23:29:30.035Z,1.30
2018-09-26T23:31:58.694Z,1.10
2018-09-26T23:34:27.363Z,1.30
2018-09-26T23:36:56.121Z,1.23
2018-09-26T23:39:24.767Z,1.17
2018-09-26T23:41:53.446Z,1.37
2018-09-26T23:44:22.160Z,1.50
2018-09-26T23:46:50.841Z,1.30
2018-09-26T23:49:19.604Z,1.07
2018-09-26T23:51:48.266Z,1.27
2018-09-26T23:54:17.255Z,1.00
2018-09-26T23:56:45.919Z,1.23
2018-09-26T23:59:14.601Z,1.47
